Terminal Aerodrome Forecast
Issued by NWS Charleston, WV

Current Version | Previous Version | Text Only | Print | Product List | Glossary Off
Versions: 1 2 3 4 5 6 7 8 9 10 11 12 13 14 15 16 17 18 19 20 21 22 23 24

000
FTUS41 KRLX 220520
TAFBKW
TAF
KBKW 220520Z 2206/2306 16006KT P6SM SCT008 BKN040
     FM220900 VRB03KT P6SM SCT008 BKN012
     FM221400 30005KT P6SM BKN020
     FM221700 29005KT P6SM SCT050
     FM222100 31005KT P6SM SCT150=

USA.gov is the U.S. government's official web portal to all federal, state and local government web resources and services.